Observations

Aujourd'hui

  • Température

    Max: 18.1° à 15:10:52

    Moy: 14.5°

    Min: 12.7° à 08:56:12

 

  • Humidité

    Max: 98% à 15:10:52

    Min: 91% à 00:27:23

 

  • Précipitation accumulée

    Aujourd'hui: 0 mm

    Ce mois-ci: 0 mm

    Cette année: 401 mm



HeureTemperaturePoint de roséeHumiditéDir. VentVitesseRafalesPressionPrecip.Precip. Accum.
15:09 18°C 17.7°C 98% 0 km/h 0 km/h 1010 hPa 0 mm/hr 0 mm
15:04 17.9°C 17.6°C 98% 0 km/h 0 km/h 1010 hPa 0 mm/hr 0 mm
14:59 17.8°C 17.4°C 98% 0 km/h 1.8 km/h 1010 hPa 0 mm/hr 0 mm
14:54 17.7°C 17.4°C 98% 0 km/h 1.8 km/h 1010 hPa 0 mm/hr 0 mm
14:49 17.6°C 17.3°C 98% 0 km/h 0 km/h 1010 hPa 0 mm/hr 0 mm
14:44 17.5°C 17.2°C 98% 0 km/h 0 km/h 1010 hPa 0 mm/hr 0 mm
14:39 17.5°C 17.2°C 98% 0 km/h 0 km/h 1010 hPa 0 mm/hr 0 mm
14:34 17.4°C 17.1°C 98% 0 km/h 2.9 km/h 1010 hPa 0 mm/hr 0 mm
14:29 17.4°C 17.1°C 98% 0 km/h 2.9 km/h 1010 hPa 0 mm/hr 0 mm
14:24 17.4°C 17.1°C 98% 2.9 km/h 2.9 km/h 1010 hPa 0 mm/hr 0 mm
14:19 17.4°C 17.1°C 98% 0 km/h 0 km/h 1010 hPa 0 mm/hr 0 mm
14:14 17.3°C 16.9°C 98% 0 km/h 0 km/h 1010 hPa 0 mm/hr 0 mm
14:09 17.3°C 16.9°C 98% 0 km/h 0 km/h 1010 hPa 0 mm/hr 0 mm
14:04 17.3°C 16.9°C 98% 0 km/h 0 km/h 1010 hPa 0 mm/hr 0 mm
13:59 17.2°C 16.9°C 98% 0 km/h 0 km/h 1010 hPa 0 mm/hr 0 mm
13:54 17.2°C 16.9°C 98% 0 km/h 0 km/h 1010 hPa 0 mm/hr 0 mm
13:49 17°C 16.7°C 98% 0 km/h 6.1 km/h 1010 hPa 0 mm/hr 0 mm
13:44 16.8°C 16.4°C 98% 0 km/h 6.1 km/h 1010 hPa 0 mm/hr 0 mm
13:39 16.7°C 16.4°C 98% 0 km/h 4 km/h 1010 hPa 0 mm/hr 0 mm
13:34 16.5°C 16.2°C 98% 0 km/h 0 km/h 1010 hPa 0 mm/hr 0 mm
13:29 16.3°C 15.9°C 98% 0 km/h 0 km/h 1010 hPa 0 mm/hr 0 mm
13:24 16.1°C 15.8°C 98% 0 km/h 0 km/h 1010 hPa 0 mm/hr 0 mm
13:19 16°C 15.7°C 98% 0 km/h 0 km/h 1010 hPa 0 mm/hr 0 mm
13:14 15.8°C 15.5°C 98% 0 km/h 0 km/h 1010 hPa 0 mm/hr 0 mm
13:09 15.7°C 15.4°C 98% 0 km/h 0 km/h 1010 hPa 0 mm/hr 0 mm
13:04 15.6°C 15.3°C 98% 0 km/h 3.2 km/h 1010 hPa 0 mm/hr 0 mm
12:59 15.5°C 15.2°C 98% 0 km/h 3.2 km/h 1010 hPa 0 mm/hr 0 mm
12:54 15.4°C 15.1°C 98% 0 km/h 3.2 km/h 1010 hPa 0 mm/hr 0 mm
12:49 15.2°C 14.9°C 98% 0 km/h 0 km/h 1010 hPa 0 mm/hr 0 mm
12:44 15.1°C 14.8°C 98% 0 km/h 0 km/h 1010 hPa 0 mm/hr 0 mm
12:39 15°C 14.7°C 98% 0 km/h 0 km/h 1010 hPa 0 mm/hr 0 mm
12:34 14.9°C 14.6°C 98% 0 km/h 0 km/h 1010 hPa 0 mm/hr 0 mm
12:29 14.7°C 14.4°C 98% 0 km/h 2.1 km/h 1010 hPa 0 mm/hr 0 mm
12:24 14.7°C 14.4°C 98% 0 km/h 2.1 km/h 1010 hPa 0 mm/hr 0 mm
12:19 14.6°C 14.3°C 98% 2.1 km/h 2.1 km/h 1010 hPa 0 mm/hr 0 mm
12:14 14.5°C 14.2°C 98% 0 km/h 0 km/h 1010 hPa 0 mm/hr 0 mm
12:09 14.4°C 14.1°C 98% 0 km/h 0 km/h 1010 hPa 0 mm/hr 0 mm
12:04 14.4°C 14.1°C 98% 0 km/h 5.5 km/h 1010 hPa 0 mm/hr 0 mm
11:59 14.2°C 13.9°C 98% 0 km/h 5.5 km/h 1010 hPa 0 mm/hr 0 mm
11:54 14.2°C 13.9°C 98% 0 km/h 0 km/h 1010 hPa 0 mm/hr 0 mm
11:49 14.1°C 13.8°C 98% 0 km/h 0 km/h 1010 hPa 0 mm/hr 0 mm
11:44 14°C 13.7°C 98% 0 km/h 5 km/h 1010 hPa 0 mm/hr 0 mm
11:39 14°C 13.7°C 98% 0 km/h 5 km/h 1010 hPa 0 mm/hr 0 mm
11:34 13.9°C 13.6°C 98% 0 km/h 0 km/h 1010 hPa 0 mm/hr 0 mm
11:29 13.9°C 13.6°C 98% 0 km/h 5 km/h 1010 hPa 0 mm/hr 0 mm
11:24 13.8°C 13.5°C 98% 0 km/h 5 km/h 1010 hPa 0 mm/hr 0 mm
11:19 13.7°C 13.4°C 98% 0 km/h 0 km/h 1010 hPa 0 mm/hr 0 mm
11:14 13.7°C 13.4°C 98% 0 km/h 0 km/h 1010 hPa 0 mm/hr 0 mm
11:09 13.7°C 13.4°C 98% 0 km/h 0 km/h 1010 hPa 0 mm/hr 0 mm
11:04 13.6°C 13.3°C 98% 0 km/h 3.2 km/h 1010 hPa 0 mm/hr 0 mm
10:59 13.5°C 13.2°C 98% 0 km/h 3.2 km/h 1010 hPa 0 mm/hr 0 mm
10:54 13.5°C 13.2°C 98% 0 km/h 0 km/h 1010 hPa 0 mm/hr 0 mm
08:14 12.8°C 12.5°C 98% 0 km/h 4.3 km/h 1010 hPa 0 mm/hr 0 mm
08:09 12.8°C 12.5°C 98% 4.3 km/h 4.3 km/h 1010 hPa 0 mm/hr 0 mm
08:04 12.8°C 12.5°C 98% 0 km/h 2.1 km/h 1010 hPa 0 mm/hr 0 mm
07:59 12.9°C 12.6°C 98% 0 km/h 1.8 km/h 1010 hPa 0 mm/hr 0 mm
07:54 12.9°C 12.6°C 98% 0 km/h 2.9 km/h 1010 hPa 0 mm/hr 0 mm
07:49 13°C 12.7°C 98% 0 km/h 3.2 km/h 1010 hPa 0 mm/hr 0 mm
07:44 13°C 12.7°C 98% 0 km/h 8.2 km/h 1010 hPa 0 mm/hr 0 mm
07:39 13.1°C 12.8°C 98% 0 km/h 8.2 km/h 1010 hPa 0 mm/hr 0 mm
07:34 13.2°C 12.9°C 98% 0 km/h 5.8 km/h 1010 hPa 0 mm/hr 0 mm
07:29 13.2°C 12.9°C 98% 1.8 km/h 2.9 km/h 1010 hPa 0 mm/hr 0 mm
07:24 13.3°C 13°C 98% 0 km/h 4.7 km/h 1010 hPa 0 mm/hr 0 mm
07:19 13.4°C 13.1°C 98% 4.7 km/h 5.8 km/h 1010 hPa 0 mm/hr 0 mm
07:14 13.5°C 13.2°C 98% 2.1 km/h 5.8 km/h 1009 hPa 0 mm/hr 0 mm
07:09 13.5°C 13.2°C 98% 5.8 km/h 5.8 km/h 1009 hPa 0 mm/hr 0 mm
07:04 13.6°C 13.3°C 98% 2.1 km/h 4 km/h 1009 hPa 0 mm/hr 0 mm
06:59 13.7°C 13.4°C 98% 0 km/h 3.2 km/h 1009 hPa 0 mm/hr 0 mm
06:54 13.7°C 13.4°C 98% 0 km/h 3.2 km/h 1009 hPa 0 mm/hr 0 mm
06:49 13.8°C 13.5°C 98% 0 km/h 3.2 km/h 1009 hPa 0 mm/hr 0 mm
06:44 13.8°C 13.5°C 98% 0 km/h 3.2 km/h 1009 hPa 0 mm/hr 0 mm
06:39 13.8°C 13.5°C 98% 2.6 km/h 2.6 km/h 1009 hPa 0 mm/hr 0 mm
06:34 13.9°C 13.6°C 98% 0 km/h 0 km/h 1009 hPa 0 mm/hr 0 mm
06:29 13.9°C 13.6°C 98% 0 km/h 1.8 km/h 1009 hPa 0 mm/hr 0 mm
06:24 13.9°C 13.6°C 98% 0 km/h 1.8 km/h 1009 hPa 0 mm/hr 0 mm
06:19 13.9°C 13.6°C 98% 0 km/h 1.8 km/h 1009 hPa 0 mm/hr 0 mm
06:14 13.9°C 13.6°C 98% 0 km/h 1.8 km/h 1009 hPa 0 mm/hr 0 mm
06:09 13.9°C 13.6°C 98% 0 km/h 4 km/h 1009 hPa 0 mm/hr 0 mm
06:04 13.9°C 13.6°C 98% 0 km/h 4 km/h 1009 hPa 0 mm/hr 0 mm
05:59 13.9°C 13.6°C 98% 0 km/h 3.2 km/h 1009 hPa 0 mm/hr 0 mm
05:54 13.9°C 13.6°C 98% 0 km/h 3.2 km/h 1009 hPa 0 mm/hr 0 mm
05:49 14°C 13.7°C 98% 0 km/h 0 km/h 1009 hPa 0 mm/hr 0 mm
05:44 14°C 13.7°C 98% 0 km/h 4.3 km/h 1009 hPa 0 mm/hr 0 mm
05:39 14°C 13.7°C 98% 0 km/h 4.3 km/h 1009 hPa 0 mm/hr 0 mm
05:34 14°C 13.7°C 98% 4.3 km/h 4.3 km/h 1009 hPa 0 mm/hr 0 mm
05:29 14.1°C 13.8°C 98% 0 km/h 6.1 km/h 1009 hPa 0 mm/hr 0 mm
05:24 14.1°C 13.8°C 98% 0 km/h 6.1 km/h 1009 hPa 0 mm/hr 0 mm
05:19 14.1°C 13.8°C 98% 0 km/h 2.1 km/h 1009 hPa 0 mm/hr 0 mm
05:14 14.1°C 13.8°C 98% 0 km/h 2.1 km/h 1009 hPa 0 mm/hr 0 mm
05:09 14.1°C 13.8°C 98% 0 km/h 0 km/h 1009 hPa 0 mm/hr 0 mm
05:04 14.1°C 13.8°C 98% 0 km/h 0 km/h 1009 hPa 0 mm/hr 0 mm
04:59 14.1°C 13.8°C 98% 0 km/h 0 km/h 1009 hPa 0 mm/hr 0 mm
04:54 14.1°C 13.8°C 98% 0 km/h 0 km/h 1009 hPa 0 mm/hr 0 mm
04:49 14.1°C 13.8°C 98% 0 km/h 3.2 km/h 1009 hPa 0 mm/hr 0 mm
04:44 14.1°C 13.8°C 98% 0 km/h 4.3 km/h 1009 hPa 0 mm/hr 0 mm
04:39 14.1°C 13.8°C 98% 2.6 km/h 4.3 km/h 1009 hPa 0 mm/hr 0 mm
04:34 14.1°C 13.8°C 98% 0 km/h 4.3 km/h 1009 hPa 0 mm/hr 0 mm
04:29 14.1°C 13.8°C 98% 2.9 km/h 4.3 km/h 1009 hPa 0 mm/hr 0 mm
04:24 14.1°C 13.8°C 98% 0 km/h 5.5 km/h 1009 hPa 0 mm/hr 0 mm
04:19 14.1°C 13.8°C 98% 0 km/h 5.5 km/h 1009 hPa 0 mm/hr 0 mm
04:14 14.1°C 13.8°C 98% 2.1 km/h 2.9 km/h 1010 hPa 0 mm/hr 0 mm
04:09 14.1°C 13.8°C 98% 0 km/h 0 km/h 1010 hPa 0 mm/hr 0 mm
04:04 14.1°C 13.8°C 98% 0 km/h 4.7 km/h 1010 hPa 0 mm/hr 0 mm
03:59 14.1°C 13.6°C 97% 4.7 km/h 4.7 km/h 1010 hPa 0 mm/hr 0 mm
03:54 14°C 13.5°C 97% 0 km/h 3.2 km/h 1010 hPa 0 mm/hr 0 mm
03:49 14°C 13.5°C 97% 0 km/h 3.2 km/h 1010 hPa 0 mm/hr 0 mm
03:44 14°C 13.5°C 97% 0 km/h 3.2 km/h 1010 hPa 0 mm/hr 0 mm
03:39 14°C 13.5°C 97% 0 km/h 6.9 km/h 1010 hPa 0 mm/hr 0 mm
03:34 14°C 13.5°C 97% 0 km/h 6.9 km/h 1010 hPa 0 mm/hr 0 mm
03:29 14°C 13.5°C 97% 3.2 km/h 5.8 km/h 1010 hPa 0 mm/hr 0 mm
03:24 14°C 13.5°C 97% 0 km/h 5.8 km/h 1010 hPa 0 mm/hr 0 mm
03:19 14°C 13.5°C 97% 0 km/h 4.7 km/h 1010 hPa 0 mm/hr 0 mm
03:14 14.1°C 13.6°C 97% 0 km/h 3.2 km/h 1010 hPa 0 mm/hr 0 mm
03:09 14.1°C 13.5°C 96% 2.1 km/h 3.2 km/h 1010 hPa 0 mm/hr 0 mm
03:04 14.1°C 13.5°C 96% 0 km/h 3.2 km/h 1010 hPa 0 mm/hr 0 mm
02:59 14.1°C 13.5°C 96% 3.2 km/h 4 km/h 1010 hPa 0 mm/hr 0 mm
02:54 14.2°C 13.6°C 96% 0 km/h 5.8 km/h 1010 hPa 0 mm/hr 0 mm
02:49 14.2°C 13.6°C 96% 4 km/h 6.1 km/h 1010 hPa 0 mm/hr 0 mm
02:44 14.2°C 13.6°C 96% 3.2 km/h 7.2 km/h 1010 hPa 0 mm/hr 0 mm
02:39 14.3°C 13.6°C 96% 0 km/h 7.2 km/h 1010 hPa 0 mm/hr 0 mm
02:34 14.4°C 13.7°C 96% 1.8 km/h 5.8 km/h 1010 hPa 0 mm/hr 0 mm
02:29 14.4°C 13.6°C 95% 0 km/h 5.8 km/h 1010 hPa 0 mm/hr 0 mm
02:24 14.4°C 13.6°C 95% 2.1 km/h 4.7 km/h 1010 hPa 0 mm/hr 0 mm
02:19 14.5°C 13.7°C 95% 0 km/h 1.8 km/h 1010 hPa 0 mm/hr 0 mm
02:14 14.6°C 13.8°C 95% 0 km/h 10.1 km/h 1010 hPa 0 mm/hr 0 mm
02:09 14.6°C 13.8°C 95% 0 km/h 10.1 km/h 1010 hPa 0 mm/hr 0 mm
02:04 14.7°C 13.9°C 95% 10.1 km/h 10.1 km/h 1010 hPa 0 mm/hr 0 mm
01:59 14.7°C 13.9°C 95% 0 km/h 1.8 km/h 1010 hPa 0 mm/hr 0 mm
01:54 14.7°C 13.9°C 95% 0 km/h 6.1 km/h 1010 hPa 0 mm/hr 0 mm
01:49 14.8°C 13.8°C 94% 0 km/h 6.1 km/h 1010 hPa 0 mm/hr 0 mm
01:44 14.9°C 13.9°C 94% 4 km/h 4 km/h 1010 hPa 0 mm/hr 0 mm
01:39 14.9°C 13.9°C 94% 0 km/h 4 km/h 1010 hPa 0 mm/hr 0 mm
01:34 14.9°C 13.9°C 94% 2.6 km/h 4 km/h 1010 hPa 0 mm/hr 0 mm
01:29 15.1°C 14°C 93% 0 km/h 4.3 km/h 1010 hPa 0 mm/hr 0 mm
01:24 15.1°C 14°C 93% 4.3 km/h 4.3 km/h 1010 hPa 0 mm/hr 0 mm
01:19 15.2°C 14.1°C 93% 0 km/h 2.1 km/h 1010 hPa 0 mm/hr 0 mm
01:14 15.4°C 14.2°C 93% 0 km/h 2.1 km/h 1010 hPa 0 mm/hr 0 mm
01:09 15.5°C 14.4°C 93% 0 km/h 0 km/h 1010 hPa 0 mm/hr 0 mm
01:04 15.6°C 14.5°C 93% 0 km/h 2.1 km/h 1010 hPa 0 mm/hr 0 mm
00:59 15.7°C 14.6°C 93% 0 km/h 3.2 km/h 1009 hPa 0 mm/hr 0 mm
00:54 15.7°C 14.4°C 92% 0 km/h 8.2 km/h 1009 hPa 0 mm/hr 0 mm
00:49 15.9°C 14.6°C 92% 3.2 km/h 8.2 km/h 1009 hPa 0 mm/hr 0 mm
00:44 15.9°C 14.6°C 92% 0 km/h 4.3 km/h 1009 hPa 0 mm/hr 0 mm
00:39 16°C 14.7°C 92% 0 km/h 4.3 km/h 1009 hPa 0 mm/hr 0 mm
00:34 16.1°C 14.8°C 92% 4.3 km/h 4.3 km/h 1009 hPa 0 mm/hr 0 mm
00:29 16.3°C 15°C 92% 0 km/h 4.7 km/h 1010 hPa 0 mm/hr 0 mm
00:24 16.4°C 14.9°C 91% 0 km/h 4.7 km/h 1010 hPa 0 mm/hr 0 mm
00:19 16.5°C 15.2°C 92% 4.7 km/h 4.7 km/h 1010 hPa 0 mm/hr 0 mm
00:14 16.6°C 15.3°C 92% 0 km/h 1.8 km/h 1010 hPa 0 mm/hr 0 mm
00:09 16.6°C 15.1°C 91% 1.8 km/h 5 km/h 1010 hPa 0 mm/hr 0 mm
00:04 16.7°C 15.2°C 91% 0 km/h 5 km/h 1010 hPa 0 mm/hr 0 mm